Latest Weather Observations for Kingscote

IDS60801

Issued at 3:01 pm CDT Saturday 10 December 2016 (issued every 30 minutes, with the page automatically refreshed every 10 minutes)

About weather observations | Map of weather stations | Latest weather observations for SA | Other Formats
Station Details ID: 022841 Name: KINGSCOTE AERO Lat: -35.71 Lon: 137.52 Height: 6.23 m
Data from the previous 72 hours. | See also: Recent months at Kingscote
Date/Time
CDT
Temp
°C
App
Temp
°C
Dew
Point
°C
Rel
Hum
%
Delta-T
°C
Wind Press
QNH
hPa
Press
MSL
hPa
Rain since
9am
mm
Dir  Spd
km/h
Gust
km/h
Spd
kts
Gust
kts
10/03:00pm 20.5 16.1 10.3 52 5.5 SE 24 32 13 17 1023.4 1023.4 0.0
10/02:30pm 20.6 17.8 11.2 55 5.2 E 17 30 9 16 1023.4 1023.4 0.0
10/02:00pm 20.8 17.4 11.2 54 5.3 E 20 28 11 15 1023.4 1023.4 0.0
10/01:30pm 20.6 17.4 11.2 55 5.2 E 19 28 10 15 1023.6 1023.6 0.0
10/01:00pm 20.8 18.1 11.7 56 5.1 ESE 17 26 9 14 1023.8 1023.8 0.0
10/12:30pm 19.7 16.5 9.9 53 5.2 E 17 26 9 14 1024.0 1024.0 0.0
10/12:00pm 20.7 18.6 11.1 54 5.3 E 13 22 7 12 1023.9 1023.9 0.0
10/11:30am 19.7 17.6 9.9 53 5.2 ENE 11 20 6 11 1024.1 1024.1 0.0
10/11:00am 18.1 15.6 9.7 58 4.4 NE 13 24 7 13 1024.2 1024.2 0.0
10/10:30am 18.4 16.2 9.5 56 4.7 ESE 11 20 6 11 1024.4 1024.4 0.0
10/10:00am 17.8 14.8 9.2 57 4.5 ENE 15 20 8 11 1024.6 1024.6 0.0
10/09:30am 17.3 14.5 10.0 62 3.8 E 15 22 8 12 1024.6 1024.6 0.0
10/09:00am 16.3 13.3 9.3 63 3.6 ENE 15 24 8 13 1024.8 1024.8 0.0
10/08:30am 16.4 13.2 10.0 66 3.3 E 17 24 9 13 1024.6 1024.6 0.0
10/08:00am 13.7 13.4 8.7 72 2.5 CALM 0 0 0 0 1024.3 1024.3 0.0
10/07:30am 9.3 8.7 7.3 87 0.9 CALM 0 0 0 0 1024.1 1024.1 0.0
10/07:00am 6.9 6.0 6.0 94 0.4 CALM 0 0 0 0 1023.7 1023.7 0.0
10/06:30am 5.1 3.8 4.2 94 0.4 CALM 0 0 0 0 1023.7 1023.7 0.0
10/06:00am 4.2 2.7 3.2 93 0.4 CALM 0 0 0 0 1023.4 1023.4 0.0
10/05:30am 4.4 3.0 3.4 93 0.4 CALM 0 0 0 0 1023.2 1023.2 0.0
10/05:00am 5.1 2.7 4.1 93 0.4 WSW 6 7 3 4 1023.0 1023.0 0.0
10/04:30am 5.0 2.3 3.8 92 0.5 WSW 7 9 4 5 1023.0 1023.0 0.0
10/04:00am 5.5 3.1 4.3 92 0.5 WSW 6 7 3 4 1023.0 1023.0 0.0
10/03:30am 5.4 3.3 4.1 91 0.5 WSW 4 11 2 6 1023.1 1023.1 0.0
10/03:00am 5.9 4.6 4.2 89 0.7 CALM 0 0 0 0 1023.1 1023.1 0.0
10/02:30am 7.2 5.9 6.0 92 0.5 W 2 6 1 3 1023.3 1023.3 0.0
10/02:00am 6.0 4.0 4.3 89 0.7 WSW 4 9 2 5 1023.7 1023.7 0.0
10/01:30am 6.6 5.5 4.9 89 0.7 CALM 0 0 0 0 1023.6 1023.6 0.0
10/01:00am 6.9 5.7 4.7 86 1.0 CALM 0 0 0 0 1023.7 1023.7 0.0
10/12:30am 7.4 6.3 4.9 84 1.1 CALM 0 0 0 0 1024.0 1024.0 0.0
10/12:00am 8.4 7.5 6.0 85 1.1 CALM 0 0 0 0 1024.2 1024.2 0.0
 
Date/Time
CDT
Temp
°C
App
Temp
°C
Dew
Point
°C
Rel
Hum
%
Delta-T
°C
Wind Press
QNH
hPa
Press
MSL
hPa
Rain since
9am
mm
Dir  Spd
km/h
Gust
km/h
Spd
kts
Gust
kts
09/11:30pm 8.3 7.2 5.2 81 1.4 CALM 0 0 0 0 1024.3 1024.3 0.0
09/11:00pm 9.6 8.6 5.8 77 1.7 CALM 0 0 0 0 1024.5 1024.5 0.0
09/10:30pm 9.9 7.7 6.1 77 1.7 SSW 7 11 4 6 1024.5 1024.5 0.0
09/10:00pm 10.8 7.9 6.6 75 2.0 S 11 13 6 7 1024.5 1024.5 0.0
09/09:30pm 11.4 8.5 6.5 72 2.3 S 11 13 6 7 1024.1 1024.1 0.0
09/09:00pm 12.2 9.0 6.7 69 2.6 SSE 13 15 7 8 1024.0 1024.0 0.0
09/08:30pm 13.3 9.7 6.6 64 3.2 SSE 15 20 8 11 1024.0 1024.0 0.0
09/08:00pm 14.3 10.0 6.9 61 3.6 SSE 19 24 10 13 1023.6 1023.6 0.0
09/07:30pm 15.2 10.6 6.7 57 4.1 SSE 20 30 11 16 1023.3 1023.3 0.0
09/07:00pm 15.9 10.6 6.6 54 4.5 SE 24 33 13 18 1023.1 1023.1 0.0
09/06:30pm 16.3 10.5 6.2 51 4.9 SE 26 35 14 19 1022.7 1022.7 0.0
09/06:00pm 16.9 10.3 6.1 49 5.2 SE 30 39 16 21 1022.5 1022.5 0.0
09/05:30pm 17.9 12.1 6.1 46 5.8 SE 26 35 14 19 1022.4 1022.4 0.0
09/05:00pm 18.7 13.5 7.2 47 5.8 SE 24 35 13 19 1022.3 1022.3 0.0
09/04:30pm 18.1 13.4 6.0 45 5.9 SE 20 30 11 16 1022.3 1022.3 0.0
09/04:00pm 18.8 13.8 6.6 45 6.1 SSE 22 33 12 18 1022.4 1022.4 0.0
09/03:30pm 18.7 14.1 6.5 45 6.0 SSE 20 30 11 16 1022.5 1022.5 0.0
09/03:00pm 18.9 14.5 6.4 44 6.2 SSE 19 35 10 19 1022.6 1022.6 0.0
09/02:30pm 19.1 15.4 6.2 43 6.4 SSE 15 28 8 15 1022.8 1022.8 0.0
09/02:00pm 19.1 14.6 6.2 43 6.4 S 19 24 10 13 1022.9 1022.9 0.0
09/01:30pm 18.6 14.1 6.1 44 6.1 S 19 30 10 16 1023.2 1023.2 0.0
09/01:00pm 17.5 13.3 5.8 46 5.7 SSE 17 28 9 15 1023.5 1023.5 0.0
09/12:30pm 18.7 14.3 6.5 45 6.0 S 19 28 10 15 1023.6 1023.6 0.0
09/12:00pm 17.9 13.3 5.8 45 5.9 SSE 19 26 10 14 1023.5 1023.5 0.0
09/11:30am 18.4 14.5 5.3 42 6.3 SSW 15 26 8 14 1023.4 1023.4 0.0
09/11:00am 16.6 11.8 4.9 46 5.6 SSW 19 28 10 15 1023.3 1023.3 0.0
09/10:30am 16.0 12.0 5.0 48 5.2 SSW 15 22 8 12 1023.1 1023.1 0.0
09/10:00am 15.9 11.0 5.2 49 5.1 SSW 20 30 11 16 1023.0 1023.0 0.0
09/09:30am 15.1 10.0 5.9 54 4.4 SSW 22 30 12 16 1022.9 1022.9 0.0
09/09:00am 14.5 9.5 6.3 58 3.9 S 22 26 12 14 1022.8 1022.8 0.0
09/08:30am 14.9 10.0 4.9 51 4.7 SSW 20 28 11 15 1022.3 1022.3 0.0
09/08:00am 14.5 8.7 4.2 50 4.7 S 24 30 13 16 1021.9 1021.9 0.0
09/07:30am 14.8 9.8 4.8 51 4.7 S 20 28 11 15 1021.5 1021.5 0.0
09/07:00am 13.4 10.3 5.6 59 3.7 SSW 11 19 6 10 1021.1 1021.1 0.0
09/06:30am 11.7 9.3 5.1 64 3.0 WSW 7 11 4 6 1020.7 1020.7 0.0
09/06:00am 11.7 8.0 4.4 61 3.3 SSW 13 15 7 8 1020.5 1020.5 0.0
09/05:30am 12.6 7.7 4.3 57 3.8 S 19 24 10 13 1020.1 1020.1 0.0
09/05:00am 11.7 9.2 4.7 62 3.2 WSW 7 11 4 6 1019.6 1019.6 0.0
09/04:30am 12.2 9.3 4.4 59 3.5 SSW 9 13 5 7 1019.3 1019.3 0.0
09/04:00am 11.9 8.2 4.2 59 3.5 SSW 13 17 7 9 1019.1 1019.1 0.0
09/03:30am 12.8 8.4 4.8 58 3.7 S 17 24 9 13 1018.8 1018.8 0.0
09/03:00am 12.9 9.3 5.1 59 3.6 SSW 13 17 7 9 1018.6 1018.6 0.0
09/02:30am 12.7 8.4 5.1 60 3.5 SSW 17 20 9 11 1018.4 1018.4 0.0
09/02:00am 13.1 8.8 6.9 66 3.0 SSW 19 24 10 13 1018.3 1018.3 0.0
09/01:30am 13.2 9.0 5.9 61 3.4 SSW 17 24 9 13 1018.3 1018.3 0.0
09/01:00am 12.7 8.1 5.6 62 3.3 SSW 19 24 10 13 1018.2 1018.2 0.0
09/12:30am 12.5 9.1 5.9 64 3.1 S 13 17 7 9 1018.3 1018.3 0.0
09/12:00am 12.8 8.6 5.7 62 3.3 SSW 17 22 9 12 1018.2 1018.2 0.0
 
Date/Time
CDT
Temp
°C
App
Temp
°C
Dew
Point
°C
Rel
Hum
%
Delta-T
°C
Wind Press
QNH
hPa
Press
MSL
hPa
Rain since
9am
mm
Dir  Spd
km/h
Gust
km/h
Spd
kts
Gust
kts
08/11:30pm 12.4 7.5 4.9 60 3.4 SSW 20 28 11 15 1018.1 1018.1 0.0
08/11:00pm 13.3 7.0 5.7 60 3.6 SSW 28 41 15 22 1017.9 1017.9 0.0
08/10:30pm 13.3 7.3 7.1 66 3.0 SSW 28 35 15 19 1017.8 1017.8 0.0
08/10:00pm 13.3 9.0 9.2 76 2.1 SSW 22 30 12 16 1017.5 1017.5 0.0
08/09:30pm 13.3 8.3 8.0 70 2.6 SW 24 32 13 17 1016.9 1016.9 0.0
08/09:00pm 13.4 9.6 8.9 74 2.3 SSW 19 26 10 14 1016.5 1016.5 0.0
08/08:30pm 13.6 7.7 8.9 73 2.4 SSW 30 43 16 23 1016.1 1016.1 0.0
08/08:04pm 14.8 8.7 8.1 64 3.4 SSW 30 50 16 27 1015.4 1015.4 0.0
08/08:00pm 14.7 8.6 8.4 66 3.2 SSW 30 43 16 23 1015.3 1015.3 0.0
08/07:30pm 14.7 8.7 8.6 67 3.1 SW 30 41 16 22 1014.7 1014.7 0.0
08/07:00pm 15.1 8.5 8.6 65 3.3 SW 33 48 18 26 1014.3 1014.3 0.0
08/06:30pm 16.4 9.6 7.6 56 4.4 SSW 33 48 18 26 1013.6 1013.6 0.0
08/06:00pm 17.0 10.0 6.8 51 5.0 SSW 33 46 18 25 1013.0 1013.0 0.0
08/05:43pm 17.4 10.0 6.6 49 5.3 SW 35 54 19 29 1012.6 1012.6 0.0
08/05:30pm 17.5 9.5 5.8 46 5.7 SW 37 54 20 29 1012.4 1012.4 0.0
08/05:00pm 17.2 10.1 8.1 55 4.6 SW 35 50 19 27 1012.2 1012.2 0.0
08/04:30pm 18.5 11.5 6.7 46 5.9 SW 33 46 18 25 1011.6 1011.6 0.0
08/04:00pm 19.2 10.0 5.6 41 6.7 SW 43 63 23 34 1011.2 1011.2 0.0
08/03:31pm 18.5 10.1 5.4 42 6.4 SW 39 57 21 31 1010.8 1010.8 0.0
08/03:30pm 18.8 10.1 6.0 43 6.3 SW 41 57 22 31 1010.7 1010.7 0.0
08/03:28pm 19.1 10.8 6.2 43 6.4 WSW 39 57 21 31 1010.7 1010.7 0.0
08/03:00pm 18.4 9.6 5.6 43 6.3 SW 41 54 22 29 1010.6 1010.6 0.0
08/02:54pm 20.8 12.5 6.0 38 7.4 SW 39 57 21 31 1010.5 1010.5 0.0
08/02:30pm 18.4 9.1 5.9 44 6.1 SW 44 56 24 30 1010.5 1010.5 0.0
08/02:19pm 18.9 10.5 5.7 42 6.5 SW 39 59 21 32 1010.3 1010.3 0.0
08/02:00pm 18.7 10.3 7.2 47 5.8 SW 41 52 22 28 1010.3 1010.3 0.0
08/01:30pm 18.3 8.7 6.2 45 6.0 SW 46 63 25 34 1010.3 1010.3 0.0
08/01:24pm 18.7 10.2 9.2 54 5.0 SW 44 63 24 34 1010.3 1010.3 0.0
08/01:00pm 18.5 9.0 6.7 46 5.9 SW 46 61 25 33 1010.0 1010.0 0.0
08/12:30pm 19.3 11.4 7.7 47 5.9 WSW 39 57 21 31 1009.6 1009.6 0.0
08/12:00pm 19.6 11.4 6.7 43 6.5 WSW 39 57 21 31 1008.9 1008.9 0.0
08/11:30am 16.2 6.8 7.2 55 4.5 WSW 46 65 25 35 1009.0 1009.0 0.0
08/11:19am 18.0 9.4 6.5 47 5.7 WSW 41 59 22 32 1008.6 1008.6 0.0
08/11:00am 19.6 9.9 5.6 40 6.9 WSW 46 61 25 33 1008.4 1008.4 0.0
08/10:30am 19.3 10.3 6.4 43 6.4 WSW 43 63 23 34 1007.8 1007.8 0.0
08/10:09am 17.5 9.3 6.7 49 5.4 SW 39 59 21 32 1007.6 1007.6 0.0
08/10:00am 18.0 10.9 8.0 52 5.1 SW 35 50 19 27 1007.6 1007.6 0.0
08/09:39am 15.7 7.9 8.4 62 3.7 SW 39 57 21 31 1007.7 1007.7 0.0
08/09:30am 16.8 8.0 7.4 54 4.7 WSW 43 57 23 31 1007.3 1007.3 0.0
08/09:00am 17.4 10.9 8.8 57 4.5 WSW 33 52 18 28 1007.1 1007.1 0.0
08/08:57am 17.0 10.6 8.4 57 4.4 WSW 32 50 17 27 1007.1 1007.1 0.0
08/08:30am 16.5 10.1 8.7 60 4.0 WSW 32 41 17 22 1006.9 1006.9 0.0
08/08:06am 16.0 10.1 7.5 57 4.2 W 28 50 15 27 1006.6 1006.6 0.0
08/08:00am 16.1 10.4 8.3 60 4.0 WSW 28 44 15 24 1006.5 1006.5 0.0
08/07:30am 15.2 10.2 8.0 62 3.6 W 24 33 13 18 1006.0 1006.0 0.0
08/07:00am 14.1 10.4 8.1 67 3.0 W 17 26 9 14 1005.5 1005.5 0.0
08/06:30am 14.0 10.0 8.2 68 2.9 W 19 30 10 16 1005.2 1005.2 0.0
08/06:00am 14.1 9.5 8.3 68 2.9 W 22 35 12 19 1004.6 1004.6 0.0
08/05:30am 13.7 9.0 7.7 67 3.0 W 22 30 12 16 1004.0 1004.0 0.0
08/05:00am 13.9 8.6 8.3 69 2.8 WSW 26 39 14 21 1003.4 1003.4 0.0
08/04:30am 14.0 9.5 8.4 69 2.8 W 22 33 12 18 1003.0 1003.0 0.0
08/04:00am 14.4 10.3 8.8 69 2.8 W 20 32 11 17 1002.7 1002.7 0.0
08/03:30am 14.4 9.5 8.6 68 2.9 WSW 24 33 13 18 1002.3 1002.3 0.0
08/03:00am 15.0 8.9 9.6 70 2.8 WSW 32 44 17 24 1001.4 1001.4 0.0
08/02:30am 16.2 9.7 11.6 74 2.5 WSW 37 52 20 28 1000.8 1000.8 0.0
08/02:16am 17.3 12.0 12.6 74 2.6 WSW 32 50 17 27 1000.2 1000.2 0.0
08/02:00am 17.5 12.0 12.4 72 2.8 WSW 33 46 18 25 1000.0 1000.0 0.0
08/01:31am 18.2 12.7 13.5 74 2.7 W 35 54 19 29 999.7 999.7 0.0
08/01:30am 18.1 13.0 13.6 75 2.6 W 33 48 18 26 999.8 999.8 0.0
08/01:16am 18.8 14.9 14.3 75 2.6 W 28 46 15 25 999.3 999.3 0.0
08/01:00am 18.7 16.3 14.4 76 2.5 WNW 20 30 11 16 999.4 999.4 0.0
08/12:39am 19.5 14.9 14.5 73 2.9 WNW 32 50 17 27 999.1 999.1 0.0
08/12:30am 19.9 16.4 14.5 71 3.2 W 26 46 14 25 999.0 999.0 0.0
08/12:15am 21.6 17.8 14.7 65 4.1 W 28 50 15 27 999.8 999.8 0.0
08/12:00am 20.7 19.5 16.1 75 2.8 W 17 20 9 11 998.9 998.9 0.0
 
Date/Time
CDT
Temp
°C
App
Temp
°C
Dew
Point
°C
Rel
Hum
%
Delta-T
°C
Wind Press
QNH
hPa
Press
MSL
hPa
Rain since
9am
mm
Dir  Spd
km/h
Gust
km/h
Spd
kts
Gust
kts
07/11:30pm 20.9 21.3 16.3 75 2.8 WSW 9 13 5 7 998.1 998.1 0.0
07/11:00pm 19.7 20.5 15.8 78 2.3 S 6 17 3 9 998.4 998.4 0.0
07/10:30pm 21.5 22.4 16.5 73 3.0 N 7 13 4 7 997.9 997.9 0.0
07/10:00pm 20.8 23.0 16.4 76 2.7 CALM 0 0 0 0 998.9 998.9 0.0
07/09:30pm 21.1 21.6 16.5 75 2.8 NNE 9 15 5 8 999.0 999.0 0.0
07/09:00pm 20.8 20.6 16.6 77 2.6 ENE 13 17 7 9 998.9 998.9 0.0
07/08:30pm 22.3 21.6 15.4 65 4.1 NE 13 15 7 8 999.9 999.9 0.0
07/08:00pm 23.3 23.9 15.4 61 4.7 NNE 6 9 3 5 1000.8 1000.8 0.0
07/07:30pm 23.5 23.1 15.3 60 4.9 NNE 11 17 6 9 1001.3 1001.3 0.0
07/07:00pm 25.4 24.0 14.5 51 6.5 NNE 15 19 8 10 1001.3 1001.3 0.0
07/06:30pm 26.8 24.8 13.9 45 7.7 N 17 28 9 15 1001.8 1001.8 0.0
07/06:00pm 27.4 25.1 14.1 44 8.0 N 19 26 10 14 1002.3 1002.3 0.0
07/05:30pm 27.7 25.4 14.0 43 8.2 N 19 28 10 15 1003.1 1003.1 0.0
07/05:00pm 27.2 24.3 12.4 40 8.6 NNW 19 26 10 14 1003.7 1003.7 0.0
07/04:30pm 26.6 24.0 11.9 40 8.5 N 17 28 9 15 1004.8 1004.8 0.0
07/04:00pm 26.6 23.6 10.7 37 8.9 NNW 17 24 9 13 1005.7 1005.7 0.0
07/03:30pm 26.2 22.6 10.0 36 9.0 N 19 26 10 14 1006.5 1006.5 0.0

Other Formats:

Comma delimited format used in spreadsheet applications
http://www.bom.gov.au/fwo/IDS60801/IDS60801.95807.axf

JavaScript Object Notation format (JSON) in row-major order
http://www.bom.gov.au/fwo/IDS60801/IDS60801.95807.json